The Hangar Logo

METARs in Plain English
Latest METAR information for EGVN - BRIZE NORTON

EGVN 011550Z 24008KT 9999 FEW048 BKN250 19/10 Q1016 NOSIG

In plain english is....

This is a METAR report for EGVN - BRIZE NORTON .
The report was made 20 minutes ago, at 15:50 UTC.
The wind was blowing at a speed of 8 knots (9.2 miles per hour, 4.1 metres per second) from the West/Southwest (240°).
The visibility was greater than 6.2 miles (greater than 10 kilometres).
There were a few clouds at a height of 4800 feet (1463 metres) and broken clouds at a height of 25000 feet (7620 metres).
The temperature was 19°C (66°F), a dew point of 10°C (50°F) and a relative humidity of 55.9%.
The altimeter setting (airfield QNH) was 1,016 hPa (30.00 inHg).
Other remarks NOSIG.

UK Mainland

Ireland

Channel Islands

France

Other



Enter
Tel: 07092 887559 - Fax: 07092 183262

Terms of Use | Privacy Statement
Content copyright © 1999-2012 TheHangar.co.uk. All rights reserved.
Please send your questions, comments, or bug reports to the Webmaster.